sensor_id;sensor_type;location;lat;lon;timestamp;P1;durP1;ratioP1;P2;durP2;ratioP2
65045;SDS011;54657;52.022;5.534;2023-05-24T00:01:21;4.75;;;1.92;;
65045;SDS011;54657;52.022;5.534;2023-05-24T00:03:52;8.00;;;1.85;;
65045;SDS011;54657;52.022;5.534;2023-05-24T00:08:50;3.60;;;1.27;;
65045;SDS011;54657;52.022;5.534;2023-05-24T00:11:16;3.85;;;1.70;;
65045;SDS011;54657;52.022;5.534;2023-05-24T00:13:41;5.88;;;1.85;;
65045;SDS011;54657;52.022;5.534;2023-05-24T00:16:07;3.63;;;1.70;;
65045;SDS011;54657;52.022;5.534;2023-05-24T00:18:32;5.45;;;2.00;;
65045;SDS011;54657;52.022;5.534;2023-05-24T00:20:58;5.97;;;1.67;;
65045;SDS011;54657;52.022;5.534;2023-05-24T00:23:24;5.15;;;2.17;;
65045;SDS011;54657;52.022;5.534;2023-05-24T00:25:50;6.18;;;1.92;;
65045;SDS011;54657;52.022;5.534;2023-05-24T00:28:16;6.22;;;1.85;;
65045;SDS011;54657;52.022;5.534;2023-05-24T00:30:42;5.25;;;1.70;;
65045;SDS011;54657;52.022;5.534;2023-05-24T00:33:07;6.35;;;1.75;;
65045;SDS011;54657;52.022;5.534;2023-05-24T00:35:33;6.13;;;1.60;;
65045;SDS011;54657;52.022;5.534;2023-05-24T00:37:59;7.18;;;1.60;;
65045;SDS011;54657;52.022;5.534;2023-05-24T00:40:24;4.15;;;1.38;;
65045;SDS011;54657;52.022;5.534;2023-05-24T00:42:50;3.78;;;1.52;;
65045;SDS011;54657;52.022;5.534;2023-05-24T00:45:15;6.18;;;1.83;;
65045;SDS011;54657;52.022;5.534;2023-05-24T00:47:41;5.05;;;1.60;;
65045;SDS011;54657;52.022;5.534;2023-05-24T00:50:07;5.25;;;1.45;;
65045;SDS011;54657;52.022;5.534;2023-05-24T00:52:36;8.60;;;1.67;;
65045;SDS011;54657;52.022;5.534;2023-05-24T00:55:03;9.93;;;2.03;;
65045;SDS011;54657;52.022;5.534;2023-05-24T00:57:29;5.63;;;1.63;;
65045;SDS011;54657;52.022;5.534;2023-05-24T00:59:55;6.45;;;1.80;;
65045;SDS011;54657;52.022;5.534;2023-05-24T01:02:21;5.25;;;1.95;;
65045;SDS011;54657;52.022;5.534;2023-05-24T01:04:46;5.40;;;1.50;;
65045;SDS011;54657;52.022;5.534;2023-05-24T01:15:55;5.25;;;1.77;;
65045;SDS011;54657;52.022;5.534;2023-05-24T01:18:25;7.40;;;1.90;;
65045;SDS011;54657;52.022;5.534;2023-05-24T01:21:12;4.90;;;1.73;;
65045;SDS011;54657;52.022;5.534;2023-05-24T01:24:06;5.88;;;2.08;;
65045;SDS011;54657;52.022;5.534;2023-05-24T01:27:05;5.65;;;1.63;;
65045;SDS011;54657;52.022;5.534;2023-05-24T01:29:38;5.95;;;1.40;;
65045;SDS011;54657;52.022;5.534;2023-05-24T01:32:05;5.32;;;1.40;;
65045;SDS011;54657;52.022;5.534;2023-05-24T01:34:31;4.28;;;1.60;;
65045;SDS011;54657;52.022;5.534;2023-05-24T01:36:56;4.50;;;1.65;;
65045;SDS011;54657;52.022;5.534;2023-05-24T01:39:23;5.97;;;1.60;;
65045;SDS011;54657;52.022;5.534;2023-05-24T01:49:38;5.32;;;1.63;;
65045;SDS011;54657;52.022;5.534;2023-05-24T01:52:10;6.85;;;1.70;;
65045;SDS011;54657;52.022;5.534;2023-05-24T01:54:51;3.15;;;1.50;;
65045;SDS011;54657;52.022;5.534;2023-05-24T01:57:20;7.07;;;1.95;;
65045;SDS011;54657;52.022;5.534;2023-05-24T01:59:47;4.13;;;1.58;;
65045;SDS011;54657;52.022;5.534;2023-05-24T02:02:14;8.00;;;1.83;;
65045;SDS011;54657;52.022;5.534;2023-05-24T02:04:40;7.00;;;1.92;;
65045;SDS011;54657;52.022;5.534;2023-05-24T02:07:06;6.00;;;1.85;;
65045;SDS011;54657;52.022;5.534;2023-05-24T02:09:32;4.55;;;1.50;;
65045;SDS011;54657;52.022;5.534;2023-05-24T02:11:57;4.40;;;1.50;;
65045;SDS011;54657;52.022;5.534;2023-05-24T02:14:23;5.30;;;1.55;;
65045;SDS011;54657;52.022;5.534;2023-05-24T02:16:49;5.15;;;1.50;;
65045;SDS011;54657;52.022;5.534;2023-05-24T02:19:14;8.00;;;2.25;;
65045;SDS011;54657;52.022;5.534;2023-05-24T02:21:41;4.90;;;1.40;;
65045;SDS011;54657;52.022;5.534;2023-05-24T02:24:07;7.68;;;1.90;;
65045;SDS011;54657;52.022;5.534;2023-05-24T02:26:35;6.30;;;2.05;;
65045;SDS011;54657;52.022;5.534;2023-05-24T02:29:01;6.47;;;2.00;;
65045;SDS011;54657;52.022;5.534;2023-05-24T02:31:27;5.70;;;2.10;;
65045;SDS011;54657;52.022;5.534;2023-05-24T02:33:54;5.85;;;2.00;;
65045;SDS011;54657;52.022;5.534;2023-05-24T02:36:20;5.75;;;1.90;;
65045;SDS011;54657;52.022;5.534;2023-05-24T02:38:47;7.53;;;1.90;;
65045;SDS011;54657;52.022;5.534;2023-05-24T02:41:13;6.90;;;1.83;;
65045;SDS011;54657;52.022;5.534;2023-05-24T02:43:42;7.60;;;2.17;;
65045;SDS011;54657;52.022;5.534;2023-05-24T02:46:11;7.07;;;2.03;;
65045;SDS011;54657;52.022;5.534;2023-05-24T02:48:36;3.85;;;1.42;;
65045;SDS011;54657;52.022;5.534;2023-05-24T02:51:02;5.03;;;2.38;;
65045;SDS011;54657;52.022;5.534;2023-05-24T02:53:28;7.10;;;1.70;;
65045;SDS011;54657;52.022;5.534;2023-05-24T02:55:54;6.18;;;1.80;;
65045;SDS011;54657;52.022;5.534;2023-05-24T02:58:19;7.50;;;2.20;;
65045;SDS011;54657;52.022;5.534;2023-05-24T03:00:45;8.63;;;1.95;;
65045;SDS011;54657;52.022;5.534;2023-05-24T03:03:11;5.18;;;1.70;;
65045;SDS011;54657;52.022;5.534;2023-05-24T03:05:36;7.93;;;1.95;;
65045;SDS011;54657;52.022;5.534;2023-05-24T03:08:02;7.57;;;1.98;;
65045;SDS011;54657;52.022;5.534;2023-05-24T03:10:28;5.03;;;2.15;;
65045;SDS011;54657;52.022;5.534;2023-05-24T03:12:53;8.20;;;2.03;;
65045;SDS011;54657;52.022;5.534;2023-05-24T03:15:19;6.60;;;2.25;;
65045;SDS011;54657;52.022;5.534;2023-05-24T03:17:44;9.50;;;2.20;;
65045;SDS011;54657;52.022;5.534;2023-05-24T03:20:10;10.68;;;2.45;;
65045;SDS011;54657;52.022;5.534;2023-05-24T03:22:36;14.50;;;2.63;;
65045;SDS011;54657;52.022;5.534;2023-05-24T03:25:02;6.95;;;2.00;;
65045;SDS011;54657;52.022;5.534;2023-05-24T03:27:28;4.53;;;1.92;;
65045;SDS011;54657;52.022;5.534;2023-05-24T03:29:53;8.40;;;2.33;;
65045;SDS011;54657;52.022;5.534;2023-05-24T03:32:19;6.85;;;2.35;;
65045;SDS011;54657;52.022;5.534;2023-05-24T03:34:45;9.50;;;2.92;;
65045;SDS011;54657;52.022;5.534;2023-05-24T03:37:10;7.13;;;2.50;;
65045;SDS011;54657;52.022;5.534;2023-05-24T03:39:36;5.00;;;2.08;;
65045;SDS011;54657;52.022;5.534;2023-05-24T03:42:01;8.27;;;2.42;;
65045;SDS011;54657;52.022;5.534;2023-05-24T03:44:27;7.43;;;2.58;;
65045;SDS011;54657;52.022;5.534;2023-05-24T03:46:52;9.85;;;2.30;;
65045;SDS011;54657;52.022;5.534;2023-05-24T03:49:18;8.25;;;2.22;;
65045;SDS011;54657;52.022;5.534;2023-05-24T03:51:43;11.00;;;2.50;;
65045;SDS011;54657;52.022;5.534;2023-05-24T03:54:10;6.88;;;2.10;;
65045;SDS011;54657;52.022;5.534;2023-05-24T03:56:35;9.68;;;2.50;;
65045;SDS011;54657;52.022;5.534;2023-05-24T03:59:01;9.55;;;2.55;;
65045;SDS011;54657;52.022;5.534;2023-05-24T04:01:28;9.73;;;2.15;;
65045;SDS011;54657;52.022;5.534;2023-05-24T04:03:55;8.48;;;2.53;;
65045;SDS011;54657;52.022;5.534;2023-05-24T04:06:22;11.20;;;2.95;;
65045;SDS011;54657;52.022;5.534;2023-05-24T04:08:53;13.20;;;2.97;;
65045;SDS011;54657;52.022;5.534;2023-05-24T04:11:23;6.70;;;2.20;;
65045;SDS011;54657;52.022;5.534;2023-05-24T04:13:52;14.50;;;2.78;;
65045;SDS011;54657;52.022;5.534;2023-05-24T04:16:19;13.68;;;3.00;;
65045;SDS011;54657;52.022;5.534;2023-05-24T04:18:48;9.88;;;3.35;;
65045;SDS011;54657;52.022;5.534;2023-05-24T04:21:14;11.50;;;2.58;;
65045;SDS011;54657;52.022;5.534;2023-05-24T04:23:40;13.95;;;2.60;;
65045;SDS011;54657;52.022;5.534;2023-05-24T04:26:06;11.82;;;2.40;;
65045;SDS011;54657;52.022;5.534;2023-05-24T04:28:31;12.60;;;3.05;;
65045;SDS011;54657;52.022;5.534;2023-05-24T04:30:57;13.63;;;3.00;;
65045;SDS011;54657;52.022;5.534;2023-05-24T04:33:23;10.23;;;2.75;;
65045;SDS011;54657;52.022;5.534;2023-05-24T04:35:49;7.95;;;2.65;;
65045;SDS011;54657;52.022;5.534;2023-05-24T04:38:16;6.57;;;2.42;;
65045;SDS011;54657;52.022;5.534;2023-05-24T04:40:43;11.48;;;2.88;;
65045;SDS011;54657;52.022;5.534;2023-05-24T04:43:09;10.60;;;2.63;;
65045;SDS011;54657;52.022;5.534;2023-05-24T04:45:35;9.35;;;2.90;;
65045;SDS011;54657;52.022;5.534;2023-05-24T04:48:01;12.23;;;3.58;;
65045;SDS011;54657;52.022;5.534;2023-05-24T04:50:27;10.45;;;3.05;;
65045;SDS011;54657;52.022;5.534;2023-05-24T04:52:53;10.35;;;3.03;;
65045;SDS011;54657;52.022;5.534;2023-05-24T04:55:18;9.50;;;2.88;;
65045;SDS011;54657;52.022;5.534;2023-05-24T04:57:44;12.50;;;3.25;;
65045;SDS011;54657;52.022;5.534;2023-05-24T05:00:12;12.57;;;2.78;;
65045;SDS011;54657;52.022;5.534;2023-05-24T05:02:38;12.57;;;2.80;;
65045;SDS011;54657;52.022;5.534;2023-05-24T05:05:03;10.20;;;3.10;;
65045;SDS011;54657;52.022;5.534;2023-05-24T05:07:29;8.20;;;2.75;;
65045;SDS011;54657;52.022;5.534;2023-05-24T05:09:55;8.27;;;2.65;;
65045;SDS011;54657;52.022;5.534;2023-05-24T05:12:21;13.73;;;2.95;;
65045;SDS011;54657;52.022;5.534;2023-05-24T05:14:46;10.25;;;3.03;;
65045;SDS011;54657;52.022;5.534;2023-05-24T05:17:12;15.18;;;3.70;;
65045;SDS011;54657;52.022;5.534;2023-05-24T05:19:37;15.93;;;3.63;;
65045;SDS011;54657;52.022;5.534;2023-05-24T05:22:03;11.95;;;3.55;;
65045;SDS011;54657;52.022;5.534;2023-05-24T05:24:29;9.80;;;3.38;;
65045;SDS011;54657;52.022;5.534;2023-05-24T05:26:55;12.23;;;3.55;;
65045;SDS011;54657;52.022;5.534;2023-05-24T05:29:20;9.70;;;2.88;;
65045;SDS011;54657;52.022;5.534;2023-05-24T05:31:46;11.85;;;3.50;;
65045;SDS011;54657;52.022;5.534;2023-05-24T05:34:12;9.10;;;3.47;;
65045;SDS011;54657;52.022;5.534;2023-05-24T05:36:37;12.90;;;3.72;;
65045;SDS011;54657;52.022;5.534;2023-05-24T05:39:07;10.05;;;3.72;;
65045;SDS011;54657;52.022;5.534;2023-05-24T05:41:39;11.90;;;3.30;;
65045;SDS011;54657;52.022;5.534;2023-05-24T05:44:10;15.73;;;3.67;;
65045;SDS011;54657;52.022;5.534;2023-05-24T05:46:36;14.20;;;3.58;;
65045;SDS011;54657;52.022;5.534;2023-05-24T05:49:02;12.30;;;2.95;;
65045;SDS011;54657;52.022;5.534;2023-05-24T05:51:28;8.45;;;3.25;;
65045;SDS011;54657;52.022;5.534;2023-05-24T05:53:53;10.65;;;3.72;;
65045;SDS011;54657;52.022;5.534;2023-05-24T05:56:19;18.67;;;3.78;;
65045;SDS011;54657;52.022;5.534;2023-05-24T05:58:44;17.08;;;4.10;;
65045;SDS011;54657;52.022;5.534;2023-05-24T06:01:10;13.00;;;3.25;;
65045;SDS011;54657;52.022;5.534;2023-05-24T06:03:36;10.70;;;3.65;;
65045;SDS011;54657;52.022;5.534;2023-05-24T06:06:01;10.48;;;3.22;;
65045;SDS011;54657;52.022;5.534;2023-05-24T06:08:27;15.32;;;3.90;;
65045;SDS011;54657;52.022;5.534;2023-05-24T06:10:54;14.75;;;3.67;;
65045;SDS011;54657;52.022;5.534;2023-05-24T06:13:20;11.10;;;3.70;;
65045;SDS011;54657;52.022;5.534;2023-05-24T06:15:46;11.90;;;3.38;;
65045;SDS011;54657;52.022;5.534;2023-05-24T06:18:11;12.63;;;3.40;;
65045;SDS011;54657;52.022;5.534;2023-05-24T06:20:37;13.90;;;3.75;;
65045;SDS011;54657;52.022;5.534;2023-05-24T06:23:03;13.10;;;3.80;;
65045;SDS011;54657;52.022;5.534;2023-05-24T06:25:29;20.40;;;3.78;;
65045;SDS011;54657;52.022;5.534;2023-05-24T06:27:56;11.05;;;3.55;;
65045;SDS011;54657;52.022;5.534;2023-05-24T06:30:22;10.48;;;3.15;;
65045;SDS011;54657;52.022;5.534;2023-05-24T06:32:47;12.38;;;3.17;;
65045;SDS011;54657;52.022;5.534;2023-05-24T06:35:13;12.88;;;3.53;;
65045;SDS011;54657;52.022;5.534;2023-05-24T06:37:38;18.30;;;3.30;;
65045;SDS011;54657;52.022;5.534;2023-05-24T06:40:05;12.00;;;3.05;;
65045;SDS011;54657;52.022;5.534;2023-05-24T06:42:32;9.98;;;2.92;;
65045;SDS011;54657;52.022;5.534;2023-05-24T06:44:58;15.88;;;3.75;;
65045;SDS011;54657;52.022;5.534;2023-05-24T06:47:24;13.32;;;2.97;;
65045;SDS011;54657;52.022;5.534;2023-05-24T06:49:49;11.63;;;3.13;;
65045;SDS011;54657;52.022;5.534;2023-05-24T06:52:15;12.85;;;3.50;;
65045;SDS011;54657;52.022;5.534;2023-05-24T06:54:41;9.93;;;3.35;;
65045;SDS011;54657;52.022;5.534;2023-05-24T06:57:06;8.52;;;2.63;;
65045;SDS011;54657;52.022;5.534;2023-05-24T06:59:32;12.15;;;3.45;;
65045;SDS011;54657;52.022;5.534;2023-05-24T07:01:58;12.40;;;3.03;;
65045;SDS011;54657;52.022;5.534;2023-05-24T07:04:24;15.65;;;3.70;;
65045;SDS011;54657;52.022;5.534;2023-05-24T07:06:49;9.90;;;3.15;;
65045;SDS011;54657;52.022;5.534;2023-05-24T07:09:16;11.15;;;3.03;;
65045;SDS011;54657;52.022;5.534;2023-05-24T07:11:42;10.93;;;2.75;;
65045;SDS011;54657;52.022;5.534;2023-05-24T07:14:08;9.63;;;2.40;;
65045;SDS011;54657;52.022;5.534;2023-05-24T07:16:34;10.23;;;2.72;;
65045;SDS011;54657;52.022;5.534;2023-05-24T07:18:59;11.98;;;3.10;;
65045;SDS011;54657;52.022;5.534;2023-05-24T07:21:26;7.57;;;2.67;;
65045;SDS011;54657;52.022;5.534;2023-05-24T07:23:51;11.40;;;2.70;;
65045;SDS011;54657;52.022;5.534;2023-05-24T07:26:17;16.90;;;3.40;;
65045;SDS011;54657;52.022;5.534;2023-05-24T07:28:42;15.38;;;3.50;;
65045;SDS011;54657;52.022;5.534;2023-05-24T07:31:08;9.80;;;2.80;;
65045;SDS011;54657;52.022;5.534;2023-05-24T07:33:37;10.55;;;2.90;;
65045;SDS011;54657;52.022;5.534;2023-05-24T07:36:05;11.77;;;3.03;;
65045;SDS011;54657;52.022;5.534;2023-05-24T07:38:32;11.45;;;2.97;;
65045;SDS011;54657;52.022;5.534;2023-05-24T07:40:59;11.80;;;2.92;;
65045;SDS011;54657;52.022;5.534;2023-05-24T07:43:25;8.98;;;2.53;;
65045;SDS011;54657;52.022;5.534;2023-05-24T07:45:51;12.48;;;2.95;;
65045;SDS011;54657;52.022;5.534;2023-05-24T07:48:21;15.00;;;2.63;;
65045;SDS011;54657;52.022;5.534;2023-05-24T07:50:50;11.85;;;3.20;;
65045;SDS011;54657;52.022;5.534;2023-05-24T07:53:16;12.50;;;2.85;;
65045;SDS011;54657;52.022;5.534;2023-05-24T07:55:43;12.80;;;2.72;;
65045;SDS011;54657;52.022;5.534;2023-05-24T07:58:09;9.35;;;3.03;;
65045;SDS011;54657;52.022;5.534;2023-05-24T08:00:35;11.13;;;2.80;;
65045;SDS011;54657;52.022;5.534;2023-05-24T08:03:02;10.93;;;3.08;;
65045;SDS011;54657;52.022;5.534;2023-05-24T08:05:27;13.13;;;2.97;;
65045;SDS011;54657;52.022;5.534;2023-05-24T08:07:53;9.70;;;2.53;;
65045;SDS011;54657;52.022;5.534;2023-05-24T08:10:19;15.13;;;3.00;;
65045;SDS011;54657;52.022;5.534;2023-05-24T08:12:45;10.35;;;3.42;;
65045;SDS011;54657;52.022;5.534;2023-05-24T08:15:11;9.30;;;2.28;;
65045;SDS011;54657;52.022;5.534;2023-05-24T08:17:37;10.30;;;2.80;;
65045;SDS011;54657;52.022;5.534;2023-05-24T08:20:03;11.30;;;2.78;;
65045;SDS011;54657;52.022;5.534;2023-05-24T08:22:38;10.52;;;2.67;;
65045;SDS011;54657;52.022;5.534;2023-05-24T08:25:04;13.32;;;3.10;;
65045;SDS011;54657;52.022;5.534;2023-05-24T08:27:30;16.90;;;3.67;;
65045;SDS011;54657;52.022;5.534;2023-05-24T08:29:56;10.27;;;3.00;;
65045;SDS011;54657;52.022;5.534;2023-05-24T08:32:22;8.85;;;2.58;;
65045;SDS011;54657;52.022;5.534;2023-05-24T08:34:48;8.23;;;2.72;;
65045;SDS011;54657;52.022;5.534;2023-05-24T08:37:14;16.38;;;3.67;;
65045;SDS011;54657;52.022;5.534;2023-05-24T08:39:43;9.45;;;2.88;;
65045;SDS011;54657;52.022;5.534;2023-05-24T08:42:09;9.18;;;2.55;;
65045;SDS011;54657;52.022;5.534;2023-05-24T08:44:40;5.47;;;2.58;;
65045;SDS011;54657;52.022;5.534;2023-05-24T08:47:16;7.28;;;2.90;;
65045;SDS011;54657;52.022;5.534;2023-05-24T08:49:46;11.43;;;3.28;;
65045;SDS011;54657;52.022;5.534;2023-05-24T08:52:12;7.20;;;2.55;;
65045;SDS011;54657;52.022;5.534;2023-05-24T08:54:38;8.15;;;2.55;;
65045;SDS011;54657;52.022;5.534;2023-05-24T08:57:04;14.30;;;2.72;;
65045;SDS011;54657;52.022;5.534;2023-05-24T08:59:31;12.18;;;2.72;;
65045;SDS011;54657;52.022;5.534;2023-05-24T09:01:56;10.25;;;3.00;;
65045;SDS011;54657;52.022;5.534;2023-05-24T09:04:23;11.38;;;2.60;;
65045;SDS011;54657;52.022;5.534;2023-05-24T09:06:51;11.43;;;3.10;;
65045;SDS011;54657;52.022;5.534;2023-05-24T09:09:18;13.52;;;2.92;;
65045;SDS011;54657;52.022;5.534;2023-05-24T09:11:46;9.27;;;2.63;;
65045;SDS011;54657;52.022;5.534;2023-05-24T09:14:14;8.85;;;3.13;;
65045;SDS011;54657;52.022;5.534;2023-05-24T09:16:41;12.13;;;2.90;;
65045;SDS011;54657;52.022;5.534;2023-05-24T09:19:08;8.50;;;2.80;;
65045;SDS011;54657;52.022;5.534;2023-05-24T09:21:33;9.30;;;3.08;;
65045;SDS011;54657;52.022;5.534;2023-05-24T09:23:59;9.48;;;2.97;;
65045;SDS011;54657;52.022;5.534;2023-05-24T09:26:26;10.40;;;2.95;;
65045;SDS011;54657;52.022;5.534;2023-05-24T09:28:54;11.57;;;3.03;;
65045;SDS011;54657;52.022;5.534;2023-05-24T09:31:21;10.35;;;2.97;;
65045;SDS011;54657;52.022;5.534;2023-05-24T09:33:56;6.75;;;2.42;;
65045;SDS011;54657;52.022;5.534;2023-05-24T09:36:22;8.43;;;2.45;;
65045;SDS011;54657;52.022;5.534;2023-05-24T09:38:47;7.85;;;2.60;;
65045;SDS011;54657;52.022;5.534;2023-05-24T09:41:14;11.00;;;2.42;;
65045;SDS011;54657;52.022;5.534;2023-05-24T09:43:46;10.82;;;2.55;;
65045;SDS011;54657;52.022;5.534;2023-05-24T09:46:19;12.00;;;2.50;;
65045;SDS011;54657;52.022;5.534;2023-05-24T09:48:58;9.10;;;2.30;;
65045;SDS011;54657;52.022;5.534;2023-05-24T09:51:27;10.18;;;3.05;;
65045;SDS011;54657;52.022;5.534;2023-05-24T09:53:59;11.05;;;2.60;;
65045;SDS011;54657;52.022;5.534;2023-05-24T09:56:25;8.65;;;2.45;;
65045;SDS011;54657;52.022;5.534;2023-05-24T09:58:51;8.93;;;2.20;;
65045;SDS011;54657;52.022;5.534;2023-05-24T10:01:20;7.57;;;2.58;;
65045;SDS011;54657;52.022;5.534;2023-05-24T10:03:51;9.23;;;2.22;;
65045;SDS011;54657;52.022;5.534;2023-05-24T10:06:21;8.57;;;2.60;;
65045;SDS011;54657;52.022;5.534;2023-05-24T10:08:48;7.13;;;2.60;;
65045;SDS011;54657;52.022;5.534;2023-05-24T10:11:15;10.32;;;2.90;;
65045;SDS011;54657;52.022;5.534;2023-05-24T10:13:41;7.20;;;2.35;;
65045;SDS011;54657;52.022;5.534;2023-05-24T10:16:07;6.55;;;2.40;;
65045;SDS011;54657;52.022;5.534;2023-05-24T10:18:32;9.07;;;2.40;;
65045;SDS011;54657;52.022;5.534;2023-05-24T10:20:58;9.88;;;2.83;;
65045;SDS011;54657;52.022;5.534;2023-05-24T10:23:28;10.00;;;2.65;;
65045;SDS011;54657;52.022;5.534;2023-05-24T10:25:57;6.63;;;2.03;;
65045;SDS011;54657;52.022;5.534;2023-05-24T10:28:30;8.52;;;2.40;;
65045;SDS011;54657;52.022;5.534;2023-05-24T10:31:02;12.10;;;3.05;;
65045;SDS011;54657;52.022;5.534;2023-05-24T10:33:33;6.57;;;2.65;;
65045;SDS011;54657;52.022;5.534;2023-05-24T10:36:02;12.73;;;2.60;;
65045;SDS011;54657;52.022;5.534;2023-05-24T10:38:29;9.18;;;2.13;;
65045;SDS011;54657;52.022;5.534;2023-05-24T10:40:55;10.38;;;2.70;;
65045;SDS011;54657;52.022;5.534;2023-05-24T10:43:21;6.45;;;2.40;;
65045;SDS011;54657;52.022;5.534;2023-05-24T10:45:47;7.90;;;2.70;;
65045;SDS011;54657;52.022;5.534;2023-05-24T10:50:40;11.65;;;2.53;;
65045;SDS011;54657;52.022;5.534;2023-05-24T10:53:12;9.60;;;2.55;;
65045;SDS011;54657;52.022;5.534;2023-05-24T10:55:57;9.68;;;2.45;;
65045;SDS011;54657;52.022;5.534;2023-05-24T11:00:59;9.35;;;2.55;;
65045;SDS011;54657;52.022;5.534;2023-05-24T11:03:24;9.07;;;2.53;;
65045;SDS011;54657;52.022;5.534;2023-05-24T11:08:33;9.63;;;2.40;;
65045;SDS011;54657;52.022;5.534;2023-05-24T11:13:31;9.05;;;2.80;;
65045;SDS011;54657;52.022;5.534;2023-05-24T11:15:57;7.50;;;2.25;;
65045;SDS011;54657;52.022;5.534;2023-05-24T11:18:24;9.98;;;2.53;;
65045;SDS011;54657;52.022;5.534;2023-05-24T11:20:50;7.85;;;2.72;;
65045;SDS011;54657;52.022;5.534;2023-05-24T11:23:16;6.53;;;2.35;;
65045;SDS011;54657;52.022;5.534;2023-05-24T11:25:44;9.50;;;2.53;;
65045;SDS011;54657;52.022;5.534;2023-05-24T11:28:11;6.10;;;2.58;;
65045;SDS011;54657;52.022;5.534;2023-05-24T11:30:40;7.95;;;2.35;;
65045;SDS011;54657;52.022;5.534;2023-05-24T11:33:13;10.38;;;2.65;;
65045;SDS011;54657;52.022;5.534;2023-05-24T11:35:39;5.55;;;1.98;;
65045;SDS011;54657;52.022;5.534;2023-05-24T11:38:09;7.03;;;2.47;;
65045;SDS011;54657;52.022;5.534;2023-05-24T11:40:42;12.32;;;2.38;;
65045;SDS011;54657;52.022;5.534;2023-05-24T11:43:10;9.27;;;2.55;;
65045;SDS011;54657;52.022;5.534;2023-05-24T11:45:38;8.30;;;2.50;;
65045;SDS011;54657;52.022;5.534;2023-05-24T11:48:06;7.00;;;2.53;;
65045;SDS011;54657;52.022;5.534;2023-05-24T11:50:31;6.38;;;2.60;;
65045;SDS011;54657;52.022;5.534;2023-05-24T11:53:02;9.07;;;2.50;;
65045;SDS011;54657;52.022;5.534;2023-05-24T11:55:28;8.02;;;2.50;;
65045;SDS011;54657;52.022;5.534;2023-05-24T11:57:56;10.73;;;2.75;;
65045;SDS011;54657;52.022;5.534;2023-05-24T12:00:24;7.20;;;2.50;;
65045;SDS011;54657;52.022;5.534;2023-05-24T12:02:50;9.63;;;2.83;;
65045;SDS011;54657;52.022;5.534;2023-05-24T12:05:17;7.22;;;2.67;;
65045;SDS011;54657;52.022;5.534;2023-05-24T12:07:43;9.40;;;2.65;;
65045;SDS011;54657;52.022;5.534;2023-05-24T12:10:15;7.47;;;2.60;;
65045;SDS011;54657;52.022;5.534;2023-05-24T12:12:42;10.00;;;2.85;;
65045;SDS011;54657;52.022;5.534;2023-05-24T12:15:11;7.85;;;2.95;;
65045;SDS011;54657;52.022;5.534;2023-05-24T12:17:38;11.55;;;3.00;;
65045;SDS011;54657;52.022;5.534;2023-05-24T12:20:05;7.50;;;2.70;;
65045;SDS011;54657;52.022;5.534;2023-05-24T12:22:34;10.18;;;2.88;;
65045;SDS011;54657;52.022;5.534;2023-05-24T12:24:59;8.50;;;2.88;;
65045;SDS011;54657;52.022;5.534;2023-05-24T12:27:27;10.93;;;3.05;;
65045;SDS011;54657;52.022;5.534;2023-05-24T12:29:55;6.93;;;2.65;;
65045;SDS011;54657;52.022;5.534;2023-05-24T12:32:20;7.15;;;2.83;;
65045;SDS011;54657;52.022;5.534;2023-05-24T12:34:47;6.28;;;2.78;;
65045;SDS011;54657;52.022;5.534;2023-05-24T12:37:14;6.82;;;2.78;;
65045;SDS011;54657;52.022;5.534;2023-05-24T12:39:39;8.07;;;2.90;;
65045;SDS011;54657;52.022;5.534;2023-05-24T12:42:06;10.95;;;2.45;;
65045;SDS011;54657;52.022;5.534;2023-05-24T12:44:34;8.32;;;2.80;;
65045;SDS011;54657;52.022;5.534;2023-05-24T12:47:02;10.35;;;3.22;;
65045;SDS011;54657;52.022;5.534;2023-05-24T12:49:29;10.95;;;2.70;;
65045;SDS011;54657;52.022;5.534;2023-05-24T12:51:55;7.90;;;2.70;;
65045;SDS011;54657;52.022;5.534;2023-05-24T12:54:22;10.85;;;3.28;;
65045;SDS011;54657;52.022;5.534;2023-05-24T12:56:48;9.50;;;3.15;;
65045;SDS011;54657;52.022;5.534;2023-05-24T12:59:14;8.02;;;2.95;;
65045;SDS011;54657;52.022;5.534;2023-05-24T13:01:40;9.00;;;2.75;;
65045;SDS011;54657;52.022;5.534;2023-05-24T13:04:06;12.40;;;2.85;;
65045;SDS011;54657;52.022;5.534;2023-05-24T13:06:32;8.52;;;2.90;;
65045;SDS011;54657;52.022;5.534;2023-05-24T13:08:58;8.88;;;3.15;;
65045;SDS011;54657;52.022;5.534;2023-05-24T13:11:23;6.93;;;2.55;;
65045;SDS011;54657;52.022;5.534;2023-05-24T13:13:50;9.23;;;2.90;;
65045;SDS011;54657;52.022;5.534;2023-05-24T13:16:16;10.50;;;2.80;;
65045;SDS011;54657;52.022;5.534;2023-05-24T13:18:41;10.55;;;2.75;;
65045;SDS011;54657;52.022;5.534;2023-05-24T13:21:08;13.77;;;3.28;;
65045;SDS011;54657;52.022;5.534;2023-05-24T13:23:33;8.27;;;3.40;;
65045;SDS011;54657;52.022;5.534;2023-05-24T13:26:03;8.05;;;2.88;;
65045;SDS011;54657;52.022;5.534;2023-05-24T13:28:30;11.20;;;2.92;;
65045;SDS011;54657;52.022;5.534;2023-05-24T13:30:57;8.32;;;2.95;;
65045;SDS011;54657;52.022;5.534;2023-05-24T13:33:22;9.07;;;3.33;;
65045;SDS011;54657;52.022;5.534;2023-05-24T13:35:48;9.55;;;3.13;;
65045;SDS011;54657;52.022;5.534;2023-05-24T13:38:13;12.82;;;2.97;;
65045;SDS011;54657;52.022;5.534;2023-05-24T13:40:39;9.07;;;3.00;;
65045;SDS011;54657;52.022;5.534;2023-05-24T13:43:05;10.93;;;3.00;;
65045;SDS011;54657;52.022;5.534;2023-05-24T13:45:31;7.25;;;2.78;;
65045;SDS011;54657;52.022;5.534;2023-05-24T13:47:57;5.20;;;2.28;;
65045;SDS011;54657;52.022;5.534;2023-05-24T13:50:28;8.55;;;2.72;;
65045;SDS011;54657;52.022;5.534;2023-05-24T13:52:56;11.98;;;3.30;;
65045;SDS011;54657;52.022;5.534;2023-05-24T13:55:22;9.05;;;2.97;;
65045;SDS011;54657;52.022;5.534;2023-05-24T13:57:48;7.18;;;2.70;;
65045;SDS011;54657;52.022;5.534;2023-05-24T14:00:14;9.38;;;2.88;;
65045;SDS011;54657;52.022;5.534;2023-05-24T14:02:41;6.55;;;2.72;;
65045;SDS011;54657;52.022;5.534;2023-05-24T14:05:07;7.38;;;2.83;;
65045;SDS011;54657;52.022;5.534;2023-05-24T14:07:33;7.15;;;2.92;;
65045;SDS011;54657;52.022;5.534;2023-05-24T14:09:59;9.52;;;3.30;;
65045;SDS011;54657;52.022;5.534;2023-05-24T14:12:24;8.18;;;3.13;;
65045;SDS011;54657;52.022;5.534;2023-05-24T14:14:50;9.02;;;2.97;;
65045;SDS011;54657;52.022;5.534;2023-05-24T14:17:16;5.13;;;2.28;;
65045;SDS011;54657;52.022;5.534;2023-05-24T14:19:41;6.63;;;2.95;;
65045;SDS011;54657;52.022;5.534;2023-05-24T14:22:07;6.47;;;3.08;;
65045;SDS011;54657;52.022;5.534;2023-05-24T14:24:32;23.27;;;4.00;;
65045;SDS011;54657;52.022;5.534;2023-05-24T14:26:58;8.20;;;2.40;;
65045;SDS011;54657;52.022;5.534;2023-05-24T14:29:23;7.10;;;2.63;;
65045;SDS011;54657;52.022;5.534;2023-05-24T14:31:49;5.80;;;2.03;;
65045;SDS011;54657;52.022;5.534;2023-05-24T14:34:15;5.68;;;2.35;;
65045;SDS011;54657;52.022;5.534;2023-05-24T14:36:40;9.98;;;3.22;;
65045;SDS011;54657;52.022;5.534;2023-05-24T14:39:06;5.63;;;2.63;;
65045;SDS011;54657;52.022;5.534;2023-05-24T14:41:32;5.97;;;2.50;;
65045;SDS011;54657;52.022;5.534;2023-05-24T14:43:59;7.60;;;2.80;;
65045;SDS011;54657;52.022;5.534;2023-05-24T14:46:25;6.28;;;2.50;;
65045;SDS011;54657;52.022;5.534;2023-05-24T14:48:50;5.85;;;2.53;;
65045;SDS011;54657;52.022;5.534;2023-05-24T14:51:16;4.95;;;2.53;;
65045;SDS011;54657;52.022;5.534;2023-05-24T14:53:42;6.88;;;2.90;;
65045;SDS011;54657;52.022;5.534;2023-05-24T14:56:09;8.27;;;2.38;;
65045;SDS011;54657;52.022;5.534;2023-05-24T14:58:34;8.77;;;3.20;;
65045;SDS011;54657;52.022;5.534;2023-05-24T15:01:01;7.65;;;2.83;;
65045;SDS011;54657;52.022;5.534;2023-05-24T15:03:26;7.22;;;2.63;;
65045;SDS011;54657;52.022;5.534;2023-05-24T15:05:52;6.72;;;2.58;;
65045;SDS011;54657;52.022;5.534;2023-05-24T15:08:18;6.88;;;2.47;;
65045;SDS011;54657;52.022;5.534;2023-05-24T15:10:43;5.65;;;2.65;;